sensor_id;sensor_type;location;lat;lon;timestamp;pressure;altitude;pressure_sealevel;temperature;humidity
28344;BME280;15597;50.914;6.638;2023-06-26T00:02:18;100545.59;;;30.88;33.97
28344;BME280;15597;50.914;6.638;2023-06-26T00:04:44;100543.22;;;30.85;33.80
28344;BME280;15597;50.914;6.638;2023-06-26T00:07:10;100541.53;;;30.84;33.63
28344;BME280;15597;50.914;6.638;2023-06-26T00:09:35;100532.75;;;30.82;33.89
28344;BME280;15597;50.914;6.638;2023-06-26T00:12:01;100533.78;;;30.81;33.98
28344;BME280;15597;50.914;6.638;2023-06-26T00:14:27;100536.47;;;30.81;33.82
28344;BME280;15597;50.914;6.638;2023-06-26T00:16:52;100535.59;;;30.80;33.78
28344;BME280;15597;50.914;6.638;2023-06-26T00:19:18;100535.59;;;30.80;33.88
28344;BME280;15597;50.914;6.638;2023-06-26T00:21:44;100533.44;;;30.75;33.66
28344;BME280;15597;50.914;6.638;2023-06-26T00:24:12;100535.13;;;30.77;33.76
28344;BME280;15597;50.914;6.638;2023-06-26T00:26:38;100541.53;;;30.75;33.35
28344;BME280;15597;50.914;6.638;2023-06-26T00:29:04;100537.97;;;30.75;33.78
28344;BME280;15597;50.914;6.638;2023-06-26T00:31:30;100542.50;;;30.74;33.76
28344;BME280;15597;50.914;6.638;2023-06-26T00:33:55;100533.72;;;30.72;33.86
28344;BME280;15597;50.914;6.638;2023-06-26T00:36:23;100533.72;;;30.72;33.74
28344;BME280;15597;50.914;6.638;2023-06-26T00:38:52;100534.25;;;30.68;33.19
28344;BME280;15597;50.914;6.638;2023-06-26T00:41:19;100531.56;;;30.68;33.48
28344;BME280;15597;50.914;6.638;2023-06-26T00:43:44;100525.63;;;30.64;33.91
28344;BME280;15597;50.914;6.638;2023-06-26T00:46:12;100530.34;;;30.62;33.46
28344;BME280;15597;50.914;6.638;2023-06-26T00:48:41;100534.72;;;30.63;33.30
28344;BME280;15597;50.914;6.638;2023-06-26T00:51:08;100534.72;;;30.63;33.38
28344;BME280;15597;50.914;6.638;2023-06-26T00:53:34;100534.72;;;30.63;33.46
28344;BME280;15597;50.914;6.638;2023-06-26T00:56:00;100531.88;;;30.65;33.07
28344;BME280;15597;50.914;6.638;2023-06-26T00:58:28;100533.91;;;30.63;33.43
28344;BME280;15597;50.914;6.638;2023-06-26T01:00:56;100526.13;;;30.59;33.59
28344;BME280;15597;50.914;6.638;2023-06-26T01:03:24;100522.88;;;30.56;33.17
28344;BME280;15597;50.914;6.638;2023-06-26T01:05:54;100520.84;;;30.50;33.50
28344;BME280;15597;50.914;6.638;2023-06-26T01:08:22;100518.16;;;30.50;33.58
28344;BME280;15597;50.914;6.638;2023-06-26T01:10:48;100520.16;;;30.48;33.65
28344;BME280;15597;50.914;6.638;2023-06-26T01:13:14;100523.88;;;30.46;33.50
28344;BME280;15597;50.914;6.638;2023-06-26T01:15:40;100518.47;;;30.46;33.82
28344;BME280;15597;50.914;6.638;2023-06-26T01:18:06;100515.97;;;30.45;33.45
28344;BME280;15597;50.914;6.638;2023-06-26T01:20:36;100519.81;;;30.42;33.23
28344;BME280;15597;50.914;6.638;2023-06-26T01:28:34;100516.44;;;30.32;33.58
28344;BME280;15597;50.914;6.638;2023-06-26T01:31:02;100518.44;;;30.30;33.47
28344;BME280;15597;50.914;6.638;2023-06-26T01:33:29;100516.59;;;30.30;33.56
28344;BME280;15597;50.914;6.638;2023-06-26T01:35:55;100518.94;;;30.25;33.42
28344;BME280;15597;50.914;6.638;2023-06-26T01:38:21;100514.03;;;30.21;33.88
28344;BME280;15597;50.914;6.638;2023-06-26T01:40:52;100510.97;;;30.15;33.18
28344;BME280;15597;50.914;6.638;2023-06-26T01:46:06;100522.00;;;29.96;34.11
28344;BME280;15597;50.914;6.638;2023-06-26T01:48:42;100529.53;;;29.84;34.20
28344;BME280;15597;50.914;6.638;2023-06-26T01:51:11;100531.03;;;29.78;34.16
28344;BME280;15597;50.914;6.638;2023-06-26T01:53:41;100526.28;;;29.72;34.09
28344;BME280;15597;50.914;6.638;2023-06-26T01:56:13;100517.81;;;29.67;33.90
28344;BME280;15597;50.914;6.638;2023-06-26T01:58:45;100530.91;;;29.62;34.25
28344;BME280;15597;50.914;6.638;2023-06-26T02:01:12;100530.91;;;29.62;34.14
28344;BME280;15597;50.914;6.638;2023-06-26T02:03:37;100526.69;;;29.59;34.01
28344;BME280;15597;50.914;6.638;2023-06-26T02:06:03;100531.56;;;29.55;34.42
28344;BME280;15597;50.914;6.638;2023-06-26T02:08:28;100533.56;;;29.53;34.02
28344;BME280;15597;50.914;6.638;2023-06-26T02:10:55;100543.50;;;29.53;34.50
28344;BME280;15597;50.914;6.638;2023-06-26T02:13:21;100531.19;;;29.50;34.13
28344;BME280;15597;50.914;6.638;2023-06-26T02:15:47;100535.06;;;29.48;34.53
28344;BME280;15597;50.914;6.638;2023-06-26T02:18:13;100539.59;;;29.47;34.19
28344;BME280;15597;50.914;6.638;2023-06-26T02:20:38;100537.91;;;29.46;34.19
28344;BME280;15597;50.914;6.638;2023-06-26T02:23:05;100539.06;;;29.43;34.53
28344;BME280;15597;50.914;6.638;2023-06-26T02:25:30;100542.78;;;29.42;34.20
28344;BME280;15597;50.914;6.638;2023-06-26T02:27:56;100541.91;;;29.42;34.75
28344;BME280;15597;50.914;6.638;2023-06-26T02:30:22;100550.00;;;29.42;34.60
28344;BME280;15597;50.914;6.638;2023-06-26T02:32:47;100556.41;;;29.41;34.54
28344;BME280;15597;50.914;6.638;2023-06-26T02:35:13;100556.41;;;29.41;34.19
28344;BME280;15597;50.914;6.638;2023-06-26T02:37:42;100563.25;;;29.35;34.44
28344;BME280;15597;50.914;6.638;2023-06-26T02:40:08;100564.69;;;29.29;34.83
28344;BME280;15597;50.914;6.638;2023-06-26T02:42:37;100566.56;;;29.11;34.89
28344;BME280;15597;50.914;6.638;2023-06-26T02:45:02;100570.66;;;28.97;34.83
28344;BME280;15597;50.914;6.638;2023-06-26T02:47:30;100565.34;;;28.87;35.05
28344;BME280;15597;50.914;6.638;2023-06-26T02:49:55;100557.22;;;28.79;35.14
28344;BME280;15597;50.914;6.638;2023-06-26T02:52:21;100548.72;;;28.74;35.17
28344;BME280;15597;50.914;6.638;2023-06-26T02:54:47;100560.78;;;28.69;35.61
28344;BME280;15597;50.914;6.638;2023-06-26T02:57:13;100567.75;;;28.62;35.77
28344;BME280;15597;50.914;6.638;2023-06-26T02:59:40;100560.75;;;28.51;36.20
28344;BME280;15597;50.914;6.638;2023-06-26T03:02:05;100556.59;;;28.39;36.43
28344;BME280;15597;50.914;6.638;2023-06-26T03:04:37;100565.38;;;28.31;36.26
28344;BME280;15597;50.914;6.638;2023-06-26T03:07:04;100569.53;;;28.25;36.37
28344;BME280;15597;50.914;6.638;2023-06-26T03:09:30;100570.28;;;28.18;36.71
28344;BME280;15597;50.914;6.638;2023-06-26T03:11:56;100574.53;;;28.10;36.74
28344;BME280;15597;50.914;6.638;2023-06-26T03:14:22;100576.81;;;28.05;36.92
28344;BME280;15597;50.914;6.638;2023-06-26T03:16:47;100587.88;;;28.02;36.99
28344;BME280;15597;50.914;6.638;2023-06-26T03:19:13;100592.53;;;28.00;37.48
28344;BME280;15597;50.914;6.638;2023-06-26T03:22:01;100590.16;;;27.97;37.17
28344;BME280;15597;50.914;6.638;2023-06-26T03:24:29;100583.06;;;27.96;37.50
28344;BME280;15597;50.914;6.638;2023-06-26T03:26:55;100574.31;;;27.94;37.43
28344;BME280;15597;50.914;6.638;2023-06-26T03:29:20;100587.06;;;27.92;37.59
28344;BME280;15597;50.914;6.638;2023-06-26T03:31:47;100582.97;;;27.88;37.79
28344;BME280;15597;50.914;6.638;2023-06-26T03:34:12;100583.09;;;27.86;37.79
28344;BME280;15597;50.914;6.638;2023-06-26T03:36:38;100578.88;;;27.83;37.85
28344;BME280;15597;50.914;6.638;2023-06-26T03:39:04;100580.56;;;27.84;37.85
28344;BME280;15597;50.914;6.638;2023-06-26T03:41:30;100583.56;;;27.81;38.02
28344;BME280;15597;50.914;6.638;2023-06-26T03:43:55;100571.22;;;27.79;37.77
28344;BME280;15597;50.914;6.638;2023-06-26T03:46:26;100584.53;;;27.80;38.01
28344;BME280;15597;50.914;6.638;2023-06-26T03:48:52;100587.94;;;27.82;38.19
28344;BME280;15597;50.914;6.638;2023-06-26T03:51:17;100592.16;;;27.85;38.23
28344;BME280;15597;50.914;6.638;2023-06-26T03:53:43;100590.34;;;27.85;38.12
28344;BME280;15597;50.914;6.638;2023-06-26T03:56:09;100589.63;;;27.83;38.31
28344;BME280;15597;50.914;6.638;2023-06-26T03:58:34;100594.31;;;27.81;38.43
28344;BME280;15597;50.914;6.638;2023-06-26T04:01:00;100596.41;;;27.78;38.66
28344;BME280;15597;50.914;6.638;2023-06-26T04:03:26;100604.94;;;27.73;38.55
28344;BME280;15597;50.914;6.638;2023-06-26T04:05:52;100610.31;;;27.73;38.34
28344;BME280;15597;50.914;6.638;2023-06-26T04:08:17;100605.78;;;27.74;38.20
28344;BME280;15597;50.914;6.638;2023-06-26T04:10:45;100616.41;;;27.75;38.38
28344;BME280;15597;50.914;6.638;2023-06-26T04:13:13;100620.91;;;27.75;38.43
28344;BME280;15597;50.914;6.638;2023-06-26T04:15:39;100628.44;;;27.71;38.45
28344;BME280;15597;50.914;6.638;2023-06-26T04:18:04;100638.06;;;27.64;38.34
28344;BME280;15597;50.914;6.638;2023-06-26T04:20:30;100636.66;;;27.60;38.33
28344;BME280;15597;50.914;6.638;2023-06-26T04:22:56;100656.47;;;27.59;38.42
28344;BME280;15597;50.914;6.638;2023-06-26T04:25:21;100660.97;;;27.58;38.67
28344;BME280;15597;50.914;6.638;2023-06-26T04:27:47;100654.75;;;27.58;38.38
28344;BME280;15597;50.914;6.638;2023-06-26T04:30:12;100663.53;;;27.60;38.31
28344;BME280;15597;50.914;6.638;2023-06-26T04:32:38;100668.63;;;27.63;38.33
28344;BME280;15597;50.914;6.638;2023-06-26T04:35:04;100667.34;;;27.67;38.30
28344;BME280;15597;50.914;6.638;2023-06-26T04:37:29;100669.88;;;27.68;38.10
28344;BME280;15597;50.914;6.638;2023-06-26T04:39:55;100671.72;;;27.68;37.96
28344;BME280;15597;50.914;6.638;2023-06-26T04:42:20;100669.16;;;27.66;38.22
28344;BME280;15597;50.914;6.638;2023-06-26T04:44:49;100682.75;;;27.65;38.23
28344;BME280;15597;50.914;6.638;2023-06-26T04:47:14;100684.75;;;27.63;38.10
28344;BME280;15597;50.914;6.638;2023-06-26T04:49:41;100681.34;;;27.61;38.30
28344;BME280;15597;50.914;6.638;2023-06-26T04:52:11;100683.03;;;27.62;37.86
28344;BME280;15597;50.914;6.638;2023-06-26T04:54:39;100685.56;;;27.63;38.15
28344;BME280;15597;50.914;6.638;2023-06-26T04:57:04;100685.28;;;27.66;38.11
28344;BME280;15597;50.914;6.638;2023-06-26T04:59:31;100688.97;;;27.65;38.18
28344;BME280;15597;50.914;6.638;2023-06-26T05:01:56;100690.13;;;27.63;38.13
28344;BME280;15597;50.914;6.638;2023-06-26T05:04:22;100702.97;;;27.59;38.03
28344;BME280;15597;50.914;6.638;2023-06-26T05:06:48;100697.59;;;27.59;38.27
28344;BME280;15597;50.914;6.638;2023-06-26T05:09:13;100690.94;;;27.53;38.27
28344;BME280;15597;50.914;6.638;2023-06-26T05:11:39;100691.22;;;27.50;38.34
28344;BME280;15597;50.914;6.638;2023-06-26T05:14:05;100694.91;;;27.49;38.26
28344;BME280;15597;50.914;6.638;2023-06-26T05:16:33;100694.03;;;27.49;38.57
28344;BME280;15597;50.914;6.638;2023-06-26T05:18:59;100694.91;;;27.49;38.26
28344;BME280;15597;50.914;6.638;2023-06-26T05:21:25;100688.66;;;27.49;38.27
28344;BME280;15597;50.914;6.638;2023-06-26T05:23:52;100685.00;;;27.50;38.46
28344;BME280;15597;50.914;6.638;2023-06-26T05:26:21;100698.53;;;27.48;38.42
28344;BME280;15597;50.914;6.638;2023-06-26T05:28:47;100705.78;;;27.48;38.62
28344;BME280;15597;50.914;6.638;2023-06-26T05:31:15;100695.44;;;27.43;38.58
28344;BME280;15597;50.914;6.638;2023-06-26T05:33:43;100706.19;;;27.43;38.60
28344;BME280;15597;50.914;6.638;2023-06-26T05:36:09;100711.56;;;27.43;38.81
28344;BME280;15597;50.914;6.638;2023-06-26T05:38:35;100719.91;;;27.40;38.84
28344;BME280;15597;50.914;6.638;2023-06-26T05:41:01;100722.75;;;27.38;38.82
28344;BME280;15597;50.914;6.638;2023-06-26T05:43:26;100724.56;;;27.38;38.80
28344;BME280;15597;50.914;6.638;2023-06-26T05:45:52;100725.72;;;27.35;38.91
28344;BME280;15597;50.914;6.638;2023-06-26T05:48:17;100730.50;;;27.32;39.19
28344;BME280;15597;50.914;6.638;2023-06-26T05:50:43;100735.31;;;27.28;38.94
28344;BME280;15597;50.914;6.638;2023-06-26T05:53:09;100735.44;;;27.26;38.85
28344;BME280;15597;50.914;6.638;2023-06-26T05:55:35;100733.63;;;27.27;39.22
28344;BME280;15597;50.914;6.638;2023-06-26T05:58:02;100735.03;;;27.31;39.22
28344;BME280;15597;50.914;6.638;2023-06-26T06:00:28;100739.25;;;27.34;39.03
28344;BME280;15597;50.914;6.638;2023-06-26T06:02:54;100742.66;;;27.36;39.41
28344;BME280;15597;50.914;6.638;2023-06-26T06:05:21;100732.34;;;27.41;39.25
28344;BME280;15597;50.914;6.638;2023-06-26T06:07:47;100732.94;;;27.45;39.15
28344;BME280;15597;50.914;6.638;2023-06-26T06:10:13;100734.34;;;27.49;39.00
28344;BME280;15597;50.914;6.638;2023-06-26T06:12:38;100733.94;;;27.53;38.74
28344;BME280;15597;50.914;6.638;2023-06-26T06:15:05;100742.59;;;27.57;38.99
28344;BME280;15597;50.914;6.638;2023-06-26T06:17:31;100747.09;;;27.56;38.90
28344;BME280;15597;50.914;6.638;2023-06-26T06:19:57;100748.81;;;27.58;39.24
28344;BME280;15597;50.914;6.638;2023-06-26T06:22:22;100743.00;;;27.52;39.24
28344;BME280;15597;50.914;6.638;2023-06-26T06:24:51;100752.19;;;27.50;39.01
28344;BME280;15597;50.914;6.638;2023-06-26T06:27:17;100755.44;;;27.53;39.32
28344;BME280;15597;50.914;6.638;2023-06-26T06:29:42;100760.53;;;27.56;39.15
28344;BME280;15597;50.914;6.638;2023-06-26T06:32:08;100766.06;;;27.55;39.06
28344;BME280;15597;50.914;6.638;2023-06-26T06:34:33;100765.91;;;27.56;39.21
28344;BME280;15597;50.914;6.638;2023-06-26T06:36:59;100774.72;;;27.59;39.01
28344;BME280;15597;50.914;6.638;2023-06-26T06:39:24;100785.19;;;27.62;39.05
28344;BME280;15597;50.914;6.638;2023-06-26T06:41:50;100786.72;;;27.64;39.16
28344;BME280;15597;50.914;6.638;2023-06-26T06:44:16;100792.69;;;27.68;39.08
28344;BME280;15597;50.914;6.638;2023-06-26T06:46:41;100788.28;;;27.67;39.30
28344;BME280;15597;50.914;6.638;2023-06-26T06:49:08;100793.66;;;27.67;39.31
28344;BME280;15597;50.914;6.638;2023-06-26T06:51:34;100791.69;;;27.69;39.19
28344;BME280;15597;50.914;6.638;2023-06-26T06:53:59;100796.78;;;27.72;39.18
28344;BME280;15597;50.914;6.638;2023-06-26T06:56:25;100801.88;;;27.75;38.91
28344;BME280;15597;50.914;6.638;2023-06-26T06:58:50;100805.28;;;27.77;39.13
28344;BME280;15597;50.914;6.638;2023-06-26T07:01:16;100825.09;;;27.76;39.19
28344;BME280;15597;50.914;6.638;2023-06-26T07:03:41;100823.66;;;27.72;39.45
28344;BME280;15597;50.914;6.638;2023-06-26T07:06:07;100825.66;;;27.70;39.34
28344;BME280;15597;50.914;6.638;2023-06-26T07:08:32;100833.00;;;27.68;39.72
28344;BME280;15597;50.914;6.638;2023-06-26T07:10:58;100829.00;;;27.62;39.76
28344;BME280;15597;50.914;6.638;2023-06-26T07:13:24;100832.84;;;27.60;39.73
28344;BME280;15597;50.914;6.638;2023-06-26T07:15:49;100827.16;;;27.53;39.97
28344;BME280;15597;50.914;6.638;2023-06-26T07:18:15;100832.66;;;27.51;40.14
28344;BME280;15597;50.914;6.638;2023-06-26T07:20:41;100827.28;;;27.51;40.01
28344;BME280;15597;50.914;6.638;2023-06-26T07:23:08;100826.44;;;27.51;40.12
28344;BME280;15597;50.914;6.638;2023-06-26T07:25:33;100822.63;;;27.53;40.15
28344;BME280;15597;50.914;6.638;2023-06-26T07:27:59;100817.13;;;27.55;40.22
28344;BME280;15597;50.914;6.638;2023-06-26T07:30:24;100814.28;;;27.56;40.03
28344;BME280;15597;50.914;6.638;2023-06-26T07:32:50;100810.47;;;27.59;40.04
28344;BME280;15597;50.914;6.638;2023-06-26T07:35:16;100813.03;;;27.61;40.03
28344;BME280;15597;50.914;6.638;2023-06-26T07:37:42;100810.06;;;27.64;40.10
28344;BME280;15597;50.914;6.638;2023-06-26T07:40:08;100817.69;;;27.68;40.10
28344;BME280;15597;50.914;6.638;2023-06-26T07:42:34;100815.44;;;27.74;40.24
28344;BME280;15597;50.914;6.638;2023-06-26T07:45:00;100817.72;;;27.78;40.15
28344;BME280;15597;50.914;6.638;2023-06-26T07:47:25;100820.84;;;27.83;39.95
28344;BME280;15597;50.914;6.638;2023-06-26T07:49:51;100822.25;;;27.88;39.95
28344;BME280;15597;50.914;6.638;2023-06-26T07:52:18;100836.13;;;27.93;39.69
28344;BME280;15597;50.914;6.638;2023-06-26T07:54:44;100838.25;;;27.99;39.74
28344;BME280;15597;50.914;6.638;2023-06-26T07:57:09;100835.28;;;28.02;39.82
28344;BME280;15597;50.914;6.638;2023-06-26T07:59:36;100838.69;;;28.04;39.56
28344;BME280;15597;50.914;6.638;2023-06-26T08:02:02;100843.78;;;28.07;39.51
28344;BME280;15597;50.914;6.638;2023-06-26T08:04:29;100840.22;;;28.07;39.59
28344;BME280;15597;50.914;6.638;2023-06-26T08:06:58;100832.03;;;28.08;39.49
28344;BME280;15597;50.914;6.638;2023-06-26T08:09:27;100838.09;;;28.10;39.68
28344;BME280;15597;50.914;6.638;2023-06-26T08:11:53;100844.34;;;28.11;39.60
28344;BME280;15597;50.914;6.638;2023-06-26T08:14:19;100846.19;;;28.10;39.71
28344;BME280;15597;50.914;6.638;2023-06-26T08:16:46;100845.19;;;28.11;39.63
28344;BME280;15597;50.914;6.638;2023-06-26T08:19:15;100852.44;;;28.11;39.71
28344;BME280;15597;50.914;6.638;2023-06-26T08:21:44;100850.31;;;28.14;39.75
28344;BME280;15597;50.914;6.638;2023-06-26T08:24:10;100848.34;;;28.17;39.96
28344;BME280;15597;50.914;6.638;2023-06-26T08:26:36;100857.09;;;28.19;39.83
28344;BME280;15597;50.914;6.638;2023-06-26T08:29:02;100865.59;;;28.24;39.90
28344;BME280;15597;50.914;6.638;2023-06-26T08:31:34;100861.63;;;28.28;39.67
28344;BME280;15597;50.914;6.638;2023-06-26T08:34:01;100860.50;;;28.31;39.77
28344;BME280;15597;50.914;6.638;2023-06-26T08:36:26;100854.13;;;28.32;39.60
28344;BME280;15597;50.914;6.638;2023-06-26T08:38:52;100869.00;;;28.36;39.50
28344;BME280;15597;50.914;6.638;2023-06-26T08:41:17;100873.53;;;28.35;39.67
28344;BME280;15597;50.914;6.638;2023-06-26T08:43:43;100874.22;;;28.37;39.34
28344;BME280;15597;50.914;6.638;2023-06-26T08:46:08;100890.38;;;28.37;39.46
28344;BME280;15597;50.914;6.638;2023-06-26T08:48:35;100880.88;;;28.33;39.15
28344;BME280;15597;50.914;6.638;2023-06-26T08:51:05;100890.47;;;28.06;39.71
28344;BME280;15597;50.914;6.638;2023-06-26T08:53:55;100900.97;;;28.09;39.71
28344;BME280;15597;50.914;6.638;2023-06-26T08:56:22;100886.41;;;28.22;39.50
28344;BME280;15597;50.914;6.638;2023-06-26T08:58:48;100893.91;;;28.28;39.28
28344;BME280;15597;50.914;6.638;2023-06-26T09:01:14;100892.34;;;28.35;39.35
28344;BME280;15597;50.914;6.638;2023-06-26T09:03:40;100885.69;;;28.39;39.04
28344;BME280;15597;50.914;6.638;2023-06-26T09:06:08;100899.56;;;28.45;39.46
28344;BME280;15597;50.914;6.638;2023-06-26T09:08:34;100894.06;;;28.46;39.34
28344;BME280;15597;50.914;6.638;2023-06-26T09:10:59;100890.22;;;28.49;38.89
28344;BME280;15597;50.914;6.638;2023-06-26T09:13:25;100893.63;;;28.51;38.82
28344;BME280;15597;50.914;6.638;2023-06-26T09:15:54;100896.72;;;28.56;39.01
28344;BME280;15597;50.914;6.638;2023-06-26T09:18:21;100890.78;;;28.62;38.74
28344;BME280;15597;50.914;6.638;2023-06-26T09:20:47;100888.81;;;28.64;38.70
28344;BME280;15597;50.914;6.638;2023-06-26T09:23:13;100887.53;;;28.68;38.41
28344;BME280;15597;50.914;6.638;2023-06-26T09:25:40;100886.53;;;28.69;38.67
28344;BME280;15597;50.914;6.638;2023-06-26T09:28:06;100882.84;;;28.70;38.58
28344;BME280;15597;50.914;6.638;2023-06-26T09:30:33;100887.25;;;28.71;38.40
28344;BME280;15597;50.914;6.638;2023-06-26T09:33:13;100894.91;;;28.66;38.58
28344;BME280;15597;50.914;6.638;2023-06-26T09:35:39;100891.34;;;28.76;37.99
28344;BME280;15597;50.914;6.638;2023-06-26T09:38:05;100897.47;;;28.78;38.30
28344;BME280;15597;50.914;6.638;2023-06-26T09:40:31;100907.22;;;28.79;38.15
28344;BME280;15597;50.914;6.638;2023-06-26T09:43:06;100905.78;;;28.75;38.27
28344;BME280;15597;50.914;6.638;2023-06-26T09:45:33;100904.25;;;28.82;38.10
28344;BME280;15597;50.914;6.638;2023-06-26T09:48:03;100905.25;;;28.81;37.52
28344;BME280;15597;50.914;6.638;2023-06-26T09:50:29;100920.81;;;28.87;37.84
28344;BME280;15597;50.914;6.638;2023-06-26T09:52:55;100925.91;;;28.90;37.59
28344;BME280;15597;50.914;6.638;2023-06-26T09:55:21;100919.53;;;28.91;37.25
28344;BME280;15597;50.914;6.638;2023-06-26T09:57:51;100920.53;;;28.90;37.38
28344;BME280;15597;50.914;6.638;2023-06-26T10:00:17;100924.63;;;28.94;37.61
28344;BME280;15597;50.914;6.638;2023-06-26T10:02:43;100926.16;;;28.97;36.96
28344;BME280;15597;50.914;6.638;2023-06-26T10:05:09;100926.88;;;28.99;37.17
28344;BME280;15597;50.914;6.638;2023-06-26T10:07:35;100924.75;;;29.03;36.59
28344;BME280;15597;50.914;6.638;2023-06-26T10:10:02;100922.75;;;29.05;37.12
28344;BME280;15597;50.914;6.638;2023-06-26T10:12:30;100928.56;;;29.10;36.81
28344;BME280;15597;50.914;6.638;2023-06-26T10:14:57;100932.66;;;29.14;36.74
28344;BME280;15597;50.914;6.638;2023-06-26T10:17:25;100934.34;;;29.15;36.63
28344;BME280;15597;50.914;6.638;2023-06-26T10:19:53;100932.06;;;29.20;36.47
28344;BME280;15597;50.914;6.638;2023-06-26T10:22:27;100933.75;;;29.21;36.23
28344;BME280;15597;50.914;6.638;2023-06-26T10:24:55;100928.06;;;29.24;36.26
28344;BME280;15597;50.914;6.638;2023-06-26T10:27:26;100933.16;;;29.27;36.39
28344;BME280;15597;50.914;6.638;2023-06-26T10:29:55;100943.34;;;29.34;36.49
28344;BME280;15597;50.914;6.638;2023-06-26T10:32:24;100926.88;;;29.37;36.33
28344;BME280;15597;50.914;6.638;2023-06-26T10:34:51;100936.09;;;29.44;36.48
28344;BME280;15597;50.914;6.638;2023-06-26T10:37:17;100940.22;;;29.48;36.14
28344;BME280;15597;50.914;6.638;2023-06-26T10:39:46;100943.06;;;29.47;36.41
28344;BME280;15597;50.914;6.638;2023-06-26T10:42:15;100942.19;;;29.46;35.87
28344;BME280;15597;50.914;6.638;2023-06-26T10:44:44;100941.09;;;29.39;35.73
28344;BME280;15597;50.914;6.638;2023-06-26T10:47:11;100937.41;;;29.40;35.98
28344;BME280;15597;50.914;6.638;2023-06-26T10:49:37;100934.84;;;29.38;35.27
28344;BME280;15597;50.914;6.638;2023-06-26T10:52:07;100929.59;;;29.37;35.25
28344;BME280;15597;50.914;6.638;2023-06-26T10:54:33;100934.97;;;29.37;35.42
28344;BME280;15597;50.914;6.638;2023-06-26T10:56:59;100933.97;;;29.38;35.04
28344;BME280;15597;50.914;6.638;2023-06-26T10:59:27;100933.72;;;29.41;35.14
28344;BME280;15597;50.914;6.638;2023-06-26T11:02:04;100939.09;;;29.41;34.86
28344;BME280;15597;50.914;6.638;2023-06-26T11:04:37;100942.19;;;29.46;35.25
28344;BME280;15597;50.914;6.638;2023-06-26T11:07:24;100942.50;;;29.43;35.33
28344;BME280;15597;50.914;6.638;2023-06-26T11:12:44;100950.00;;;29.49;34.51
28344;BME280;15597;50.914;6.638;2023-06-26T11:15:14;100942.72;;;29.59;34.29
28344;BME280;15597;50.914;6.638;2023-06-26T11:17:42;100939.09;;;29.69;34.19
28344;BME280;15597;50.914;6.638;2023-06-26T11:20:10;100940.66;;;29.71;33.80
28344;BME280;15597;50.914;6.638;2023-06-26T11:22:37;100942.94;;;29.76;34.03
28344;BME280;15597;50.914;6.638;2023-06-26T11:25:03;100953.56;;;29.78;33.80
28344;BME280;15597;50.914;6.638;2023-06-26T11:27:31;100962.47;;;29.50;34.52
28344;BME280;15597;50.914;6.638;2023-06-26T11:29:56;100960.28;;;29.64;33.65
28344;BME280;15597;50.914;6.638;2023-06-26T11:32:22;100958.97;;;29.68;33.13
28344;BME280;15597;50.914;6.638;2023-06-26T11:34:48;100955.56;;;29.76;33.30
28344;BME280;15597;50.914;6.638;2023-06-26T11:37:16;100960.81;;;29.77;32.61
28344;BME280;15597;50.914;6.638;2023-06-26T11:39:42;100965.03;;;29.80;32.98
28344;BME280;15597;50.914;6.638;2023-06-26T11:42:10;100958.13;;;29.77;33.11
28344;BME280;15597;50.914;6.638;2023-06-26T11:44:40;100950.25;;;29.84;33.02
28344;BME280;15597;50.914;6.638;2023-06-26T11:47:07;100949.91;;;29.97;32.74
28344;BME280;15597;50.914;6.638;2023-06-26T11:49:32;100952.16;;;30.01;32.60
28344;BME280;15597;50.914;6.638;2023-06-26T11:51:58;100961.19;;;30.10;32.48
28344;BME280;15597;50.914;6.638;2023-06-26T11:54:25;100961.66;;;30.24;32.15
28344;BME280;15597;50.914;6.638;2023-06-26T11:56:55;100966.31;;;30.31;32.25
28344;BME280;15597;50.914;6.638;2023-06-26T11:59:22;100974.63;;;30.38;31.48
28344;BME280;15597;50.914;6.638;2023-06-26T12:01:49;100961.81;;;30.40;31.66
28344;BME280;15597;50.914;6.638;2023-06-26T12:04:17;100951.03;;;30.40;31.37
28344;BME280;15597;50.914;6.638;2023-06-26T12:06:51;100967.22;;;30.40;31.42
28344;BME280;15597;50.914;6.638;2023-06-26T12:09:21;100963.22;;;30.44;31.76
28344;BME280;15597;50.914;6.638;2023-06-26T12:11:47;100971.38;;;30.53;31.48
28344;BME280;15597;50.914;6.638;2023-06-26T12:14:17;100977.47;;;30.55;30.86
28344;BME280;15597;50.914;6.638;2023-06-26T12:16:44;100981.19;;;30.54;31.00
28344;BME280;15597;50.914;6.638;2023-06-26T12:19:10;100980.19;;;30.55;30.99
28344;BME280;15597;50.914;6.638;2023-06-26T12:24:16;100983.84;;;30.64;31.04
28344;BME280;15597;50.914;6.638;2023-06-26T12:26:47;100991.16;;;30.71;31.14
28344;BME280;15597;50.914;6.638;2023-06-26T12:29:18;100987.16;;;30.75;30.59
28344;BME280;15597;50.914;6.638;2023-06-26T12:31:46;100996.25;;;30.74;30.04
28344;BME280;15597;50.914;6.638;2023-06-26T12:34:13;100986.06;;;30.68;30.50
28344;BME280;15597;50.914;6.638;2023-06-26T12:36:47;101009.97;;;30.63;30.77
28344;BME280;15597;50.914;6.638;2023-06-26T12:39:24;101026.25;;;30.53;31.34
28344;BME280;15597;50.914;6.638;2023-06-26T12:41:57;101020.38;;;30.40;30.81
28344;BME280;15597;50.914;6.638;2023-06-26T12:44:29;101019.81;;;30.36;30.52
28344;BME280;15597;50.914;6.638;2023-06-26T12:46:57;101021.69;;;30.36;30.67
28344;BME280;15597;50.914;6.638;2023-06-26T12:51:56;101006.31;;;30.36;30.06
28344;BME280;15597;50.914;6.638;2023-06-26T12:54:21;101004.31;;;30.38;29.94
28344;BME280;15597;50.914;6.638;2023-06-26T12:56:47;100998.63;;;30.41;29.83
28344;BME280;15597;50.914;6.638;2023-06-26T12:59:12;101005.56;;;30.44;29.57
28344;BME280;15597;50.914;6.638;2023-06-26T13:01:38;101013.19;;;30.49;29.00
28344;BME280;15597;50.914;6.638;2023-06-26T13:04:05;101016.28;;;30.54;29.22
28344;BME280;15597;50.914;6.638;2023-06-26T13:06:30;100999.94;;;30.55;29.40